sensor_id;sensor_type;location;lat;lon;timestamp;P1;durP1;ratioP1;P2;durP2;ratioP2
53775;SDS011;44276;49.534;6.378;2023-08-06T00:01:43;7.68;;;4.18;;
53775;SDS011;44276;49.534;6.378;2023-08-06T00:04:11;10.85;;;3.75;;
53775;SDS011;44276;49.534;6.378;2023-08-06T00:06:39;7.10;;;3.70;;
53775;SDS011;44276;49.534;6.378;2023-08-06T00:09:07;8.52;;;3.25;;
53775;SDS011;44276;49.534;6.378;2023-08-06T00:11:36;7.93;;;3.83;;
53775;SDS011;44276;49.534;6.378;2023-08-06T00:14:04;11.70;;;3.15;;
53775;SDS011;44276;49.534;6.378;2023-08-06T00:16:33;11.70;;;2.78;;
53775;SDS011;44276;49.534;6.378;2023-08-06T00:19:02;7.07;;;3.10;;
53775;SDS011;44276;49.534;6.378;2023-08-06T00:21:30;8.70;;;3.28;;
53775;SDS011;44276;49.534;6.378;2023-08-06T00:23:58;7.47;;;1.88;;
53775;SDS011;44276;49.534;6.378;2023-08-06T00:26:27;10.45;;;3.92;;
53775;SDS011;44276;49.534;6.378;2023-08-06T00:28:55;15.85;;;3.25;;
53775;SDS011;44276;49.534;6.378;2023-08-06T00:31:23;4.68;;;1.98;;
53775;SDS011;44276;49.534;6.378;2023-08-06T00:33:53;11.25;;;2.65;;
53775;SDS011;44276;49.534;6.378;2023-08-06T00:36:21;4.78;;;2.10;;
53775;SDS011;44276;49.534;6.378;2023-08-06T00:38:49;9.93;;;2.60;;
53775;SDS011;44276;49.534;6.378;2023-08-06T00:41:18;11.52;;;2.70;;
53775;SDS011;44276;49.534;6.378;2023-08-06T00:43:46;5.03;;;2.20;;
53775;SDS011;44276;49.534;6.378;2023-08-06T00:46:14;9.63;;;2.00;;
53775;SDS011;44276;49.534;6.378;2023-08-06T00:48:42;8.60;;;1.90;;
53775;SDS011;44276;49.534;6.378;2023-08-06T00:51:12;13.48;;;1.98;;
53775;SDS011;44276;49.534;6.378;2023-08-06T00:53:43;9.55;;;1.65;;
53775;SDS011;44276;49.534;6.378;2023-08-06T00:56:11;6.00;;;1.42;;
53775;SDS011;44276;49.534;6.378;2023-08-06T00:58:40;15.80;;;2.25;;
53775;SDS011;44276;49.534;6.378;2023-08-06T01:01:09;3.80;;;1.38;;
53775;SDS011;44276;49.534;6.378;2023-08-06T01:03:37;11.65;;;3.33;;
53775;SDS011;44276;49.534;6.378;2023-08-06T01:06:06;6.15;;;1.20;;
53775;SDS011;44276;49.534;6.378;2023-08-06T01:08:40;5.53;;;1.58;;
53775;SDS011;44276;49.534;6.378;2023-08-06T01:11:26;11.48;;;1.88;;
53775;SDS011;44276;49.534;6.378;2023-08-06T01:14:06;7.15;;;2.25;;
53775;SDS011;44276;49.534;6.378;2023-08-06T01:16:46;3.88;;;1.20;;
53775;SDS011;44276;49.534;6.378;2023-08-06T01:19:16;7.85;;;1.48;;
53775;SDS011;44276;49.534;6.378;2023-08-06T01:21:46;3.58;;;0.75;;
53775;SDS011;44276;49.534;6.378;2023-08-06T01:24:15;2.97;;;1.02;;
53775;SDS011;44276;49.534;6.378;2023-08-06T01:26:45;7.05;;;0.77;;
53775;SDS011;44276;49.534;6.378;2023-08-06T01:29:30;8.05;;;1.20;;
53775;SDS011;44276;49.534;6.378;2023-08-06T01:32:12;2.63;;;0.90;;
53775;SDS011;44276;49.534;6.378;2023-08-06T01:34:42;2.40;;;0.80;;
53775;SDS011;44276;49.534;6.378;2023-08-06T01:37:14;7.20;;;1.58;;
53775;SDS011;44276;49.534;6.378;2023-08-06T01:39:43;4.13;;;1.50;;
53775;SDS011;44276;49.534;6.378;2023-08-06T01:42:11;5.85;;;0.95;;
53775;SDS011;44276;49.534;6.378;2023-08-06T01:44:40;8.45;;;1.70;;
53775;SDS011;44276;49.534;6.378;2023-08-06T01:47:08;3.95;;;1.02;;
53775;SDS011;44276;49.534;6.378;2023-08-06T01:49:36;2.42;;;1.23;;
53775;SDS011;44276;49.534;6.378;2023-08-06T01:52:04;1.77;;;0.80;;
53775;SDS011;44276;49.534;6.378;2023-08-06T01:54:35;2.80;;;1.15;;
53775;SDS011;44276;49.534;6.378;2023-08-06T01:57:03;4.35;;;2.35;;
53775;SDS011;44276;49.534;6.378;2023-08-06T01:59:32;3.25;;;1.05;;
53775;SDS011;44276;49.534;6.378;2023-08-06T02:02:01;3.60;;;1.23;;
53775;SDS011;44276;49.534;6.378;2023-08-06T02:04:29;4.85;;;2.05;;
53775;SDS011;44276;49.534;6.378;2023-08-06T02:06:57;3.70;;;1.55;;
53775;SDS011;44276;49.534;6.378;2023-08-06T02:09:25;9.05;;;1.70;;
53775;SDS011;44276;49.534;6.378;2023-08-06T02:11:55;6.65;;;1.00;;
53775;SDS011;44276;49.534;6.378;2023-08-06T02:14:23;4.90;;;1.50;;
53775;SDS011;44276;49.534;6.378;2023-08-06T02:16:51;3.83;;;0.77;;
53775;SDS011;44276;49.534;6.378;2023-08-06T02:19:19;3.67;;;0.68;;
53775;SDS011;44276;49.534;6.378;2023-08-06T02:21:48;4.53;;;1.10;;
53775;SDS011;44276;49.534;6.378;2023-08-06T02:24:16;2.60;;;0.85;;
53775;SDS011;44276;49.534;6.378;2023-08-06T02:26:45;3.15;;;0.55;;
53775;SDS011;44276;49.534;6.378;2023-08-06T02:29:16;5.93;;;2.05;;
53775;SDS011;44276;49.534;6.378;2023-08-06T02:31:44;35.50;;;1.85;;
53775;SDS011;44276;49.534;6.378;2023-08-06T02:34:13;3.25;;;1.00;;
53775;SDS011;44276;49.534;6.378;2023-08-06T02:36:41;4.30;;;0.90;;
53775;SDS011;44276;49.534;6.378;2023-08-06T02:39:10;5.05;;;1.08;;
53775;SDS011;44276;49.534;6.378;2023-08-06T02:41:38;9.60;;;1.55;;
53775;SDS011;44276;49.534;6.378;2023-08-06T02:44:06;5.18;;;0.90;;
53775;SDS011;44276;49.534;6.378;2023-08-06T02:46:36;3.42;;;1.15;;
53775;SDS011;44276;49.534;6.378;2023-08-06T02:49:04;2.58;;;0.70;;
53775;SDS011;44276;49.534;6.378;2023-08-06T02:51:33;3.00;;;1.02;;
53775;SDS011;44276;49.534;6.378;2023-08-06T02:54:02;2.88;;;1.45;;
53775;SDS011;44276;49.534;6.378;2023-08-06T02:56:30;5.88;;;1.38;;
53775;SDS011;44276;49.534;6.378;2023-08-06T02:58:58;1.52;;;0.80;;
53775;SDS011;44276;49.534;6.378;2023-08-06T03:01:27;4.07;;;0.85;;
53775;SDS011;44276;49.534;6.378;2023-08-06T03:03:56;2.28;;;1.45;;
53775;SDS011;44276;49.534;6.378;2023-08-06T03:06:25;2.35;;;0.85;;
53775;SDS011;44276;49.534;6.378;2023-08-06T03:08:53;2.63;;;0.82;;
53775;SDS011;44276;49.534;6.378;2023-08-06T03:11:21;4.75;;;1.85;;
53775;SDS011;44276;49.534;6.378;2023-08-06T03:13:50;4.80;;;1.27;;
53775;SDS011;44276;49.534;6.378;2023-08-06T03:16:18;3.55;;;0.75;;
53775;SDS011;44276;49.534;6.378;2023-08-06T03:18:47;4.68;;;1.10;;
53775;SDS011;44276;49.534;6.378;2023-08-06T03:21:16;2.35;;;0.70;;
53775;SDS011;44276;49.534;6.378;2023-08-06T03:23:46;3.25;;;1.08;;
53775;SDS011;44276;49.534;6.378;2023-08-06T03:26:15;3.85;;;0.82;;
53775;SDS011;44276;49.534;6.378;2023-08-06T03:28:43;6.60;;;1.17;;
53775;SDS011;44276;49.534;6.378;2023-08-06T03:31:12;4.68;;;1.27;;
53775;SDS011;44276;49.534;6.378;2023-08-06T03:33:40;4.10;;;1.73;;
53775;SDS011;44276;49.534;6.378;2023-08-06T03:36:08;13.30;;;3.13;;
53775;SDS011;44276;49.534;6.378;2023-08-06T03:38:38;11.75;;;1.58;;
53775;SDS011;44276;49.534;6.378;2023-08-06T03:41:06;4.80;;;1.35;;
53775;SDS011;44276;49.534;6.378;2023-08-06T03:43:34;4.00;;;1.67;;
53775;SDS011;44276;49.534;6.378;2023-08-06T03:46:02;4.95;;;1.60;;
53775;SDS011;44276;49.534;6.378;2023-08-06T03:48:30;5.22;;;1.40;;
53775;SDS011;44276;49.534;6.378;2023-08-06T03:50:58;9.23;;;1.30;;
53775;SDS011;44276;49.534;6.378;2023-08-06T03:53:28;7.43;;;1.60;;
53775;SDS011;44276;49.534;6.378;2023-08-06T03:55:58;4.47;;;1.40;;
53775;SDS011;44276;49.534;6.378;2023-08-06T03:58:27;3.10;;;1.15;;
53775;SDS011;44276;49.534;6.378;2023-08-06T04:00:58;3.60;;;1.23;;
53775;SDS011;44276;49.534;6.378;2023-08-06T04:03:27;2.40;;;1.08;;
53775;SDS011;44276;49.534;6.378;2023-08-06T04:05:56;2.88;;;1.00;;
53775;SDS011;44276;49.534;6.378;2023-08-06T04:08:24;3.22;;;1.42;;
53775;SDS011;44276;49.534;6.378;2023-08-06T04:10:52;7.43;;;2.90;;
53775;SDS011;44276;49.534;6.378;2023-08-06T04:13:22;6.95;;;1.15;;
53775;SDS011;44276;49.534;6.378;2023-08-06T04:15:50;8.23;;;1.65;;
53775;SDS011;44276;49.534;6.378;2023-08-06T04:18:19;2.70;;;1.13;;
53775;SDS011;44276;49.534;6.378;2023-08-06T04:20:47;4.38;;;1.10;;
53775;SDS011;44276;49.534;6.378;2023-08-06T04:23:16;2.22;;;1.02;;
53775;SDS011;44276;49.534;6.378;2023-08-06T04:25:44;4.03;;;2.03;;
53775;SDS011;44276;49.534;6.378;2023-08-06T04:28:12;1.90;;;1.13;;
53775;SDS011;44276;49.534;6.378;2023-08-06T04:30:42;6.22;;;1.23;;
53775;SDS011;44276;49.534;6.378;2023-08-06T04:33:10;6.53;;;1.25;;
53775;SDS011;44276;49.534;6.378;2023-08-06T04:35:38;8.98;;;1.40;;
53775;SDS011;44276;49.534;6.378;2023-08-06T04:38:06;5.85;;;1.42;;
53775;SDS011;44276;49.534;6.378;2023-08-06T04:40:35;2.13;;;1.08;;
53775;SDS011;44276;49.534;6.378;2023-08-06T04:43:03;4.70;;;0.98;;
53775;SDS011;44276;49.534;6.378;2023-08-06T04:45:31;6.75;;;1.55;;
53775;SDS011;44276;49.534;6.378;2023-08-06T04:48:01;3.28;;;0.80;;
53775;SDS011;44276;49.534;6.378;2023-08-06T04:50:29;4.35;;;1.27;;
53775;SDS011;44276;49.534;6.378;2023-08-06T04:52:57;1.48;;;0.88;;
53775;SDS011;44276;49.534;6.378;2023-08-06T04:55:25;2.58;;;0.70;;
53775;SDS011;44276;49.534;6.378;2023-08-06T04:57:53;1.75;;;0.77;;
53775;SDS011;44276;49.534;6.378;2023-08-06T05:00:21;1.50;;;0.70;;
53775;SDS011;44276;49.534;6.378;2023-08-06T05:02:50;2.97;;;1.27;;
53775;SDS011;44276;49.534;6.378;2023-08-06T05:05:19;1.08;;;0.50;;
53775;SDS011;44276;49.534;6.378;2023-08-06T05:07:48;0.57;;;0.50;;
53775;SDS011;44276;49.534;6.378;2023-08-06T05:10:17;0.60;;;0.43;;
53775;SDS011;44276;49.534;6.378;2023-08-06T05:12:45;2.30;;;1.15;;
53775;SDS011;44276;49.534;6.378;2023-08-06T05:15:13;3.83;;;0.55;;
53775;SDS011;44276;49.534;6.378;2023-08-06T05:17:42;1.55;;;0.60;;
53775;SDS011;44276;49.534;6.378;2023-08-06T05:20:11;1.23;;;0.70;;
53775;SDS011;44276;49.534;6.378;2023-08-06T05:22:40;4.13;;;0.60;;
53775;SDS011;44276;49.534;6.378;2023-08-06T05:25:09;1.40;;;0.90;;
53775;SDS011;44276;49.534;6.378;2023-08-06T05:27:37;1.00;;;0.60;;
53775;SDS011;44276;49.534;6.378;2023-08-06T05:30:06;1.38;;;1.10;;
53775;SDS011;44276;49.534;6.378;2023-08-06T05:32:35;1.42;;;0.88;;
53775;SDS011;44276;49.534;6.378;2023-08-06T05:35:04;1.50;;;0.93;;
53775;SDS011;44276;49.534;6.378;2023-08-06T05:37:33;5.82;;;0.95;;
53775;SDS011;44276;49.534;6.378;2023-08-06T05:40:03;1.77;;;1.13;;
53775;SDS011;44276;49.534;6.378;2023-08-06T05:42:32;1.67;;;0.93;;
53775;SDS011;44276;49.534;6.378;2023-08-06T05:45:00;4.13;;;1.30;;
53775;SDS011;44276;49.534;6.378;2023-08-06T05:47:28;4.18;;;1.10;;
53775;SDS011;44276;49.534;6.378;2023-08-06T05:49:56;0.80;;;0.50;;
53775;SDS011;44276;49.534;6.378;2023-08-06T05:52:24;1.83;;;0.88;;
53775;SDS011;44276;49.534;6.378;2023-08-06T05:54:53;6.32;;;0.82;;
53775;SDS011;44276;49.534;6.378;2023-08-06T05:57:22;1.27;;;0.75;;
53775;SDS011;44276;49.534;6.378;2023-08-06T05:59:50;1.23;;;1.00;;
53775;SDS011;44276;49.534;6.378;2023-08-06T06:02:18;1.38;;;0.50;;
53775;SDS011;44276;49.534;6.378;2023-08-06T06:04:47;1.98;;;0.90;;
53775;SDS011;44276;49.534;6.378;2023-08-06T06:07:15;2.78;;;1.00;;
53775;SDS011;44276;49.534;6.378;2023-08-06T06:09:43;0.70;;;0.60;;
53775;SDS011;44276;49.534;6.378;2023-08-06T06:12:11;2.63;;;0.52;;
53775;SDS011;44276;49.534;6.378;2023-08-06T06:14:41;2.70;;;0.60;;
53775;SDS011;44276;49.534;6.378;2023-08-06T06:17:09;1.33;;;0.47;;
53775;SDS011;44276;49.534;6.378;2023-08-06T06:19:37;2.13;;;1.38;;
53775;SDS011;44276;49.534;6.378;2023-08-06T06:22:05;0.35;;;0.35;;
53775;SDS011;44276;49.534;6.378;2023-08-06T06:24:33;0.75;;;0.22;;
53775;SDS011;44276;49.534;6.378;2023-08-06T06:27:01;0.73;;;0.50;;
53775;SDS011;44276;49.534;6.378;2023-08-06T06:29:30;1.20;;;0.20;;
53775;SDS011;44276;49.534;6.378;2023-08-06T06:32:00;0.47;;;0.10;;
53775;SDS011;44276;49.534;6.378;2023-08-06T06:34:28;0.10;;;0.10;;
53775;SDS011;44276;49.534;6.378;2023-08-06T06:36:56;1.75;;;0.10;;
53775;SDS011;44276;49.534;6.378;2023-08-06T06:39:24;0.20;;;0.10;;
53775;SDS011;44276;49.534;6.378;2023-08-06T06:41:52;2.08;;;0.20;;
53775;SDS011;44276;49.534;6.378;2023-08-06T06:44:21;0.10;;;0.10;;
53775;SDS011;44276;49.534;6.378;2023-08-06T06:46:49;0.10;;;0.10;;
53775;SDS011;44276;49.534;6.378;2023-08-06T06:49:19;0.95;;;0.30;;
53775;SDS011;44276;49.534;6.378;2023-08-06T06:51:47;0.95;;;0.20;;
53775;SDS011;44276;49.534;6.378;2023-08-06T06:54:15;0.30;;;0.10;;
53775;SDS011;44276;49.534;6.378;2023-08-06T06:56:43;0.13;;;0.13;;
53775;SDS011;44276;49.534;6.378;2023-08-06T06:59:12;0.20;;;0.10;;
53775;SDS011;44276;49.534;6.378;2023-08-06T07:01:40;2.60;;;0.10;;
53775;SDS011;44276;49.534;6.378;2023-08-06T07:04:08;0.75;;;0.10;;
53775;SDS011;44276;49.534;6.378;2023-08-06T07:06:37;0.30;;;0.20;;
53775;SDS011;44276;49.534;6.378;2023-08-06T07:09:05;0.47;;;0.40;;
53775;SDS011;44276;49.534;6.378;2023-08-06T07:11:34;0.75;;;0.40;;
53775;SDS011;44276;49.534;6.378;2023-08-06T07:14:02;0.10;;;0.10;;
53775;SDS011;44276;49.534;6.378;2023-08-06T07:16:30;1.60;;;0.35;;
53775;SDS011;44276;49.534;6.378;2023-08-06T07:18:58;0.10;;;0.10;;
53775;SDS011;44276;49.534;6.378;2023-08-06T07:21:26;2.22;;;0.10;;
53775;SDS011;44276;49.534;6.378;2023-08-06T07:23:56;0.28;;;0.10;;
53775;SDS011;44276;49.534;6.378;2023-08-06T07:26:25;0.30;;;0.10;;
53775;SDS011;44276;49.534;6.378;2023-08-06T07:28:53;0.10;;;0.05;;
53775;SDS011;44276;49.534;6.378;2023-08-06T07:31:22;0.32;;;0.10;;
53775;SDS011;44276;49.534;6.378;2023-08-06T07:33:50;0.73;;;0.45;;
53775;SDS011;44276;49.534;6.378;2023-08-06T07:36:18;1.83;;;0.28;;
53775;SDS011;44276;49.534;6.378;2023-08-06T07:38:46;0.38;;;0.10;;
53775;SDS011;44276;49.534;6.378;2023-08-06T07:41:19;0.10;;;0.10;;
53775;SDS011;44276;49.534;6.378;2023-08-06T07:43:47;1.52;;;0.20;;
53775;SDS011;44276;49.534;6.378;2023-08-06T07:46:15;0.20;;;0.20;;
53775;SDS011;44276;49.534;6.378;2023-08-06T07:48:44;0.47;;;0.15;;
53775;SDS011;44276;49.534;6.378;2023-08-06T07:51:12;2.92;;;0.50;;
53775;SDS011;44276;49.534;6.378;2023-08-06T07:53:40;0.10;;;0.10;;
53775;SDS011;44276;49.534;6.378;2023-08-06T07:56:08;0.38;;;0.20;;
53775;SDS011;44276;49.534;6.378;2023-08-06T07:58:38;0.65;;;0.30;;
53775;SDS011;44276;49.534;6.378;2023-08-06T08:01:06;0.30;;;0.20;;
53775;SDS011;44276;49.534;6.378;2023-08-06T08:03:34;0.30;;;0.20;;
53775;SDS011;44276;49.534;6.378;2023-08-06T08:06:02;0.40;;;0.10;;
53775;SDS011;44276;49.534;6.378;2023-08-06T08:08:30;2.20;;;0.35;;
53775;SDS011;44276;49.534;6.378;2023-08-06T08:11:01;0.40;;;0.22;;
53775;SDS011;44276;49.534;6.378;2023-08-06T08:13:30;0.77;;;0.25;;
53775;SDS011;44276;49.534;6.378;2023-08-06T08:15:59;1.35;;;0.50;;
53775;SDS011;44276;49.534;6.378;2023-08-06T08:18:29;0.60;;;0.35;;
53775;SDS011;44276;49.534;6.378;2023-08-06T08:20:57;1.60;;;0.43;;
53775;SDS011;44276;49.534;6.378;2023-08-06T08:23:26;2.03;;;0.30;;
53775;SDS011;44276;49.534;6.378;2023-08-06T08:25:54;0.80;;;0.55;;
53775;SDS011;44276;49.534;6.378;2023-08-06T08:28:22;4.07;;;1.20;;
53775;SDS011;44276;49.534;6.378;2023-08-06T08:30:51;0.80;;;0.22;;
53775;SDS011;44276;49.534;6.378;2023-08-06T08:33:21;1.75;;;0.77;;
53775;SDS011;44276;49.534;6.378;2023-08-06T08:35:50;0.95;;;0.43;;
53775;SDS011;44276;49.534;6.378;2023-08-06T08:38:18;1.52;;;0.55;;
53775;SDS011;44276;49.534;6.378;2023-08-06T08:40:46;0.70;;;0.50;;
53775;SDS011;44276;49.534;6.378;2023-08-06T08:43:20;0.95;;;0.40;;
53775;SDS011;44276;49.534;6.378;2023-08-06T08:45:49;0.98;;;0.40;;
53775;SDS011;44276;49.534;6.378;2023-08-06T08:48:22;2.38;;;0.60;;
53775;SDS011;44276;49.534;6.378;2023-08-06T08:50:51;2.28;;;0.57;;
53775;SDS011;44276;49.534;6.378;2023-08-06T08:53:19;0.50;;;0.28;;
53775;SDS011;44276;49.534;6.378;2023-08-06T08:55:49;2.88;;;0.50;;
53775;SDS011;44276;49.534;6.378;2023-08-06T08:58:17;1.45;;;1.20;;
53775;SDS011;44276;49.534;6.378;2023-08-06T09:00:46;1.17;;;0.40;;
53775;SDS011;44276;49.534;6.378;2023-08-06T09:03:15;0.65;;;0.57;;
53775;SDS011;44276;49.534;6.378;2023-08-06T09:05:49;0.77;;;0.38;;
53775;SDS011;44276;49.534;6.378;2023-08-06T09:08:24;2.72;;;0.32;;
53775;SDS011;44276;49.534;6.378;2023-08-06T09:11:09;0.82;;;0.40;;
53775;SDS011;44276;49.534;6.378;2023-08-06T09:13:38;2.95;;;0.60;;
53775;SDS011;44276;49.534;6.378;2023-08-06T09:16:06;0.77;;;0.43;;
53775;SDS011;44276;49.534;6.378;2023-08-06T09:18:35;1.73;;;0.50;;
53775;SDS011;44276;49.534;6.378;2023-08-06T09:21:08;3.25;;;0.52;;
53775;SDS011;44276;49.534;6.378;2023-08-06T09:23:42;1.73;;;0.65;;
53775;SDS011;44276;49.534;6.378;2023-08-06T09:26:13;1.02;;;0.52;;
53775;SDS011;44276;49.534;6.378;2023-08-06T09:28:42;2.40;;;0.73;;
53775;SDS011;44276;49.534;6.378;2023-08-06T09:31:10;2.78;;;1.48;;
53775;SDS011;44276;49.534;6.378;2023-08-06T09:33:38;3.00;;;1.20;;
53775;SDS011;44276;49.534;6.378;2023-08-06T09:36:08;3.38;;;1.05;;
53775;SDS011;44276;49.534;6.378;2023-08-06T09:38:38;2.05;;;0.82;;
53775;SDS011;44276;49.534;6.378;2023-08-06T09:41:08;2.40;;;0.82;;
53775;SDS011;44276;49.534;6.378;2023-08-06T09:43:39;2.17;;;0.80;;
53775;SDS011;44276;49.534;6.378;2023-08-06T09:46:12;3.92;;;2.25;;
53775;SDS011;44276;49.534;6.378;2023-08-06T09:48:44;4.82;;;1.05;;
53775;SDS011;44276;49.534;6.378;2023-08-06T09:51:15;5.15;;;0.95;;
53775;SDS011;44276;49.534;6.378;2023-08-06T09:53:45;2.38;;;0.50;;
53775;SDS011;44276;49.534;6.378;2023-08-06T09:56:17;2.25;;;1.38;;
53775;SDS011;44276;49.534;6.378;2023-08-06T09:58:45;1.50;;;0.68;;
53775;SDS011;44276;49.534;6.378;2023-08-06T10:01:17;3.72;;;0.85;;
53775;SDS011;44276;49.534;6.378;2023-08-06T10:03:47;4.75;;;1.48;;
53775;SDS011;44276;49.534;6.378;2023-08-06T10:06:19;2.03;;;0.80;;
53775;SDS011;44276;49.534;6.378;2023-08-06T10:08:50;2.03;;;1.02;;
53775;SDS011;44276;49.534;6.378;2023-08-06T10:11:18;5.70;;;1.70;;
53775;SDS011;44276;49.534;6.378;2023-08-06T10:13:52;5.45;;;2.13;;
53775;SDS011;44276;49.534;6.378;2023-08-06T10:16:28;1.92;;;1.13;;
53775;SDS011;44276;49.534;6.378;2023-08-06T10:18:57;4.55;;;1.35;;
53775;SDS011;44276;49.534;6.378;2023-08-06T10:21:30;4.55;;;2.58;;
53775;SDS011;44276;49.534;6.378;2023-08-06T10:23:59;2.47;;;1.02;;
53775;SDS011;44276;49.534;6.378;2023-08-06T10:26:27;6.15;;;1.42;;
53775;SDS011;44276;49.534;6.378;2023-08-06T10:28:57;1.98;;;1.00;;
53775;SDS011;44276;49.534;6.378;2023-08-06T10:34:22;2.70;;;1.27;;
53775;SDS011;44276;49.534;6.378;2023-08-06T10:36:52;3.15;;;1.02;;
53775;SDS011;44276;49.534;6.378;2023-08-06T10:39:22;1.60;;;0.80;;
53775;SDS011;44276;49.534;6.378;2023-08-06T10:41:56;0.98;;;0.75;;
53775;SDS011;44276;49.534;6.378;2023-08-06T10:44:26;2.03;;;1.00;;
53775;SDS011;44276;49.534;6.378;2023-08-06T10:46:57;1.15;;;0.68;;
53775;SDS011;44276;49.534;6.378;2023-08-06T10:49:55;1.52;;;0.38;;
53775;SDS011;44276;49.534;6.378;2023-08-06T10:52:26;1.85;;;0.45;;
53775;SDS011;44276;49.534;6.378;2023-08-06T10:54:55;0.98;;;0.30;;
53775;SDS011;44276;49.534;6.378;2023-08-06T10:57:23;2.75;;;0.55;;
53775;SDS011;44276;49.534;6.378;2023-08-06T10:59:52;0.65;;;0.45;;
53775;SDS011;44276;49.534;6.378;2023-08-06T11:02:40;1.48;;;0.50;;
53775;SDS011;44276;49.534;6.378;2023-08-06T11:05:10;0.38;;;0.28;;
53775;SDS011;44276;49.534;6.378;2023-08-06T11:07:41;0.30;;;0.28;;
53775;SDS011;44276;49.534;6.378;2023-08-06T11:10:10;3.88;;;0.30;;
53775;SDS011;44276;49.534;6.378;2023-08-06T11:12:40;0.85;;;0.30;;
53775;SDS011;44276;49.534;6.378;2023-08-06T11:15:09;0.88;;;0.30;;
53775;SDS011;44276;49.534;6.378;2023-08-06T11:17:39;1.27;;;0.32;;
53775;SDS011;44276;49.534;6.378;2023-08-06T11:20:10;0.25;;;0.17;;
53775;SDS011;44276;49.534;6.378;2023-08-06T11:22:42;1.50;;;0.52;;
53775;SDS011;44276;49.534;6.378;2023-08-06T11:25:11;1.13;;;0.17;;
53775;SDS011;44276;49.534;6.378;2023-08-06T11:27:39;1.10;;;0.38;;
53775;SDS011;44276;49.534;6.378;2023-08-06T11:30:09;2.20;;;0.20;;
53775;SDS011;44276;49.534;6.378;2023-08-06T11:32:45;0.17;;;0.10;;
53775;SDS011;44276;49.534;6.378;2023-08-06T11:35:15;0.80;;;0.43;;
53775;SDS011;44276;49.534;6.378;2023-08-06T11:37:45;3.13;;;0.73;;
53775;SDS011;44276;49.534;6.378;2023-08-06T11:40:14;0.82;;;0.40;;
53775;SDS011;44276;49.534;6.378;2023-08-06T11:42:44;1.25;;;0.45;;
53775;SDS011;44276;49.534;6.378;2023-08-06T11:45:14;0.50;;;0.50;;
53775;SDS011;44276;49.534;6.378;2023-08-06T11:47:49;3.75;;;0.50;;
53775;SDS011;44276;49.534;6.378;2023-08-06T11:50:22;2.92;;;0.75;;
53775;SDS011;44276;49.534;6.378;2023-08-06T11:52:56;0.60;;;0.40;;
53775;SDS011;44276;49.534;6.378;2023-08-06T11:55:27;0.65;;;0.50;;
53775;SDS011;44276;49.534;6.378;2023-08-06T11:57:56;1.90;;;0.45;;
53775;SDS011;44276;49.534;6.378;2023-08-06T12:00:25;0.93;;;0.20;;
53775;SDS011;44276;49.534;6.378;2023-08-06T12:02:54;1.58;;;0.30;;
53775;SDS011;44276;49.534;6.378;2023-08-06T12:05:29;3.00;;;0.70;;
53775;SDS011;44276;49.534;6.378;2023-08-06T12:08:01;1.20;;;0.40;;
53775;SDS011;44276;49.534;6.378;2023-08-06T12:10:30;0.90;;;0.60;;
53775;SDS011;44276;49.534;6.378;2023-08-06T12:13:01;0.90;;;0.60;;
53775;SDS011;44276;49.534;6.378;2023-08-06T12:15:30;2.85;;;0.57;;
53775;SDS011;44276;49.534;6.378;2023-08-06T12:17:59;0.73;;;0.30;;
53775;SDS011;44276;49.534;6.378;2023-08-06T12:20:28;1.60;;;0.65;;
53775;SDS011;44276;49.534;6.378;2023-08-06T12:22:57;0.35;;;0.35;;
53775;SDS011;44276;49.534;6.378;2023-08-06T12:25:27;2.03;;;0.73;;
53775;SDS011;44276;49.534;6.378;2023-08-06T12:27:56;0.93;;;0.40;;
53775;SDS011;44276;49.534;6.378;2023-08-06T12:30:24;3.22;;;1.10;;
53775;SDS011;44276;49.534;6.378;2023-08-06T12:32:53;1.20;;;0.50;;
53775;SDS011;44276;49.534;6.378;2023-08-06T12:35:21;1.23;;;0.60;;
53775;SDS011;44276;49.534;6.378;2023-08-06T12:37:52;1.58;;;0.38;;
53775;SDS011;44276;49.534;6.378;2023-08-06T12:40:21;2.17;;;0.43;;
53775;SDS011;44276;49.534;6.378;2023-08-06T12:43:03;1.30;;;0.43;;
53775;SDS011;44276;49.534;6.378;2023-08-06T12:45:31;1.10;;;0.30;;
53775;SDS011;44276;49.534;6.378;2023-08-06T12:48:00;0.32;;;0.22;;
53775;SDS011;44276;49.534;6.378;2023-08-06T12:50:29;0.55;;;0.30;;
53775;SDS011;44276;49.534;6.378;2023-08-06T12:52:59;1.40;;;0.75;;
53775;SDS011;44276;49.534;6.378;2023-08-06T12:55:27;0.77;;;0.30;;
53775;SDS011;44276;49.534;6.378;2023-08-06T12:57:58;1.52;;;1.00;;
53775;SDS011;44276;49.534;6.378;2023-08-06T13:00:29;2.20;;;0.47;;
53775;SDS011;44276;49.534;6.378;2023-08-06T13:02:57;1.20;;;0.50;;
53775;SDS011;44276;49.534;6.378;2023-08-06T13:05:26;0.28;;;0.22;;
53775;SDS011;44276;49.534;6.378;2023-08-06T13:07:55;3.30;;;0.60;;
53775;SDS011;44276;49.534;6.378;2023-08-06T13:10:23;3.30;;;0.47;;
53775;SDS011;44276;49.534;6.378;2023-08-06T13:12:53;0.82;;;0.57;;
53775;SDS011;44276;49.534;6.378;2023-08-06T13:15:22;0.20;;;0.20;;
53775;SDS011;44276;49.534;6.378;2023-08-06T13:17:52;0.43;;;0.20;;
53775;SDS011;44276;49.534;6.378;2023-08-06T13:20:21;1.52;;;0.38;;
53775;SDS011;44276;49.534;6.378;2023-08-06T13:22:49;1.08;;;0.30;;
53775;SDS011;44276;49.534;6.378;2023-08-06T13:25:20;0.40;;;0.40;;
53775;SDS011;44276;49.534;6.378;2023-08-06T13:27:50;0.57;;;0.20;;
53775;SDS011;44276;49.534;6.378;2023-08-06T13:30:18;0.95;;;0.50;;
53775;SDS011;44276;49.534;6.378;2023-08-06T13:32:49;0.75;;;0.43;;
53775;SDS011;44276;49.534;6.378;2023-08-06T13:35:19;0.75;;;0.30;;
53775;SDS011;44276;49.534;6.378;2023-08-06T13:37:48;4.05;;;0.60;;
53775;SDS011;44276;49.534;6.378;2023-08-06T13:40:17;1.77;;;0.38;;
53775;SDS011;44276;49.534;6.378;2023-08-06T13:42:45;2.40;;;0.47;;
53775;SDS011;44276;49.534;6.378;2023-08-06T13:45:14;4.22;;;0.60;;
53775;SDS011;44276;49.534;6.378;2023-08-06T13:47:42;3.13;;;0.50;;
53775;SDS011;44276;49.534;6.378;2023-08-06T13:50:11;2.83;;;0.40;;
53775;SDS011;44276;49.534;6.378;2023-08-06T13:52:41;0.60;;;0.40;;
53775;SDS011;44276;49.534;6.378;2023-08-06T13:55:10;0.88;;;0.45;;
53775;SDS011;44276;49.534;6.378;2023-08-06T13:57:38;3.67;;;0.98;;
53775;SDS011;44276;49.534;6.378;2023-08-06T14:00:07;2.53;;;0.47;;
53775;SDS011;44276;49.534;6.378;2023-08-06T14:02:37;1.67;;;0.40;;
53775;SDS011;44276;49.534;6.378;2023-08-06T14:05:06;0.75;;;0.47;;
53775;SDS011;44276;49.534;6.378;2023-08-06T14:07:35;1.50;;;0.50;;
53775;SDS011;44276;49.534;6.378;2023-08-06T14:10:05;1.48;;;0.63;;
53775;SDS011;44276;49.534;6.378;2023-08-06T14:12:35;2.85;;;1.42;;
53775;SDS011;44276;49.534;6.378;2023-08-06T14:15:04;3.25;;;0.82;;
53775;SDS011;44276;49.534;6.378;2023-08-06T14:17:33;2.83;;;1.45;;
53775;SDS011;44276;49.534;6.378;2023-08-06T14:20:02;2.15;;;0.93;;
53775;SDS011;44276;49.534;6.378;2023-08-06T14:22:33;2.50;;;0.82;;
53775;SDS011;44276;49.534;6.378;2023-08-06T14:25:02;1.65;;;0.40;;
53775;SDS011;44276;49.534;6.378;2023-08-06T14:27:34;0.75;;;0.40;;
53775;SDS011;44276;49.534;6.378;2023-08-06T14:30:02;2.83;;;0.85;;
53775;SDS011;44276;49.534;6.378;2023-08-06T14:32:32;2.42;;;0.77;;
53775;SDS011;44276;49.534;6.378;2023-08-06T14:35:01;1.20;;;0.63;;
53775;SDS011;44276;49.534;6.378;2023-08-06T14:37:30;0.25;;;0.13;;
53775;SDS011;44276;49.534;6.378;2023-08-06T14:39:58;2.92;;;0.75;;
53775;SDS011;44276;49.534;6.378;2023-08-06T14:42:28;1.83;;;0.60;;
53775;SDS011;44276;49.534;6.378;2023-08-06T14:44:57;1.05;;;0.88;;
53775;SDS011;44276;49.534;6.378;2023-08-06T14:47:25;3.28;;;1.85;;
53775;SDS011;44276;49.534;6.378;2023-08-06T14:49:53;3.08;;;0.47;;
53775;SDS011;44276;49.534;6.378;2023-08-06T14:52:22;1.00;;;0.40;;
53775;SDS011;44276;49.534;6.378;2023-08-06T14:54:50;1.35;;;0.70;;
53775;SDS011;44276;49.534;6.378;2023-08-06T14:57:21;2.45;;;0.55;;
53775;SDS011;44276;49.534;6.378;2023-08-06T14:59:55;2.15;;;0.32;;
53775;SDS011;44276;49.534;6.378;2023-08-06T15:02:23;1.08;;;0.60;;
53775;SDS011;44276;49.534;6.378;2023-08-06T15:04:54;1.95;;;0.40;;